Time;durP1;ratioP1;P1;durP2;ratioP2;P2;SDS_P1;SDS_P2;PMS_P1;PMS_P2;Temp;Humidity;BMP_temperature;BMP_pressure;BME280_temperature;BME280_humidity;BME280_pressure;Samples;Min_cycle;Max_cycle;Signal;HPM_P1;HPM_P2
2024/03/31 00:00:32;;;;;;;41.97;18.27;;;16.60;99.90;;;;;;5137821;28;20428;-66
2024/03/31 00:02:59;;;;;;;56.27;19.27;;;16.50;99.90;;;;;;5137502;28;20433;-64
2024/03/31 00:05:25;;;;;;;52.17;19.23;;;16.50;99.90;;;;;;5137097;28;20457;-65
2024/03/31 00:07:52;;;;;;;64.50;20.80;;;16.50;99.90;;;;;;5136917;28;20469;-66
2024/03/31 00:10:18;;;;;;;66.03;17.37;;;16.50;99.90;;;;;;5137037;28;20461;-65
2024/03/31 00:12:48;;;;;;;57.37;18.67;;;16.50;99.90;;;;;;5137595;28;20445;-66
2024/03/31 00:15:14;;;;;;;51.13;17.10;;;16.50;99.90;;;;;;5137561;28;20491;-66
2024/03/31 00:17:41;;;;;;;51.60;16.83;;;16.50;99.90;;;;;;5137678;28;20441;-65
2024/03/31 00:20:07;;;;;;;55.77;18.93;;;16.50;99.90;;;;;;5137972;28;20452;-66
2024/03/31 00:22:34;;;;;;;77.53;18.17;;;16.50;99.90;;;;;;5137639;28;20441;-67
2024/03/31 00:25:02;;;;;;;66.03;17.70;;;16.40;99.90;;;;;;5137623;28;20494;-65
2024/03/31 00:27:29;;;;;;;57.43;19.30;;;16.50;99.90;;;;;;5137735;28;20464;-66
2024/03/31 00:29:57;;;;;;;72.67;18.80;;;16.40;99.90;;;;;;5137972;27;20477;-66
2024/03/31 00:32:24;;;;;;;72.43;20.27;;;16.40;99.90;;;;;;5137854;28;20452;-66
2024/03/31 00:34:51;;;;;;;83.30;19.17;;;16.40;99.90;;;;;;5137301;28;20484;-67
2024/03/31 00:37:18;;;;;;;60.37;21.30;;;16.30;99.90;;;;;;5137487;28;20447;-66
2024/03/31 00:39:44;;;;;;;53.37;18.37;;;16.40;99.90;;;;;;5137458;28;20467;-66
2024/03/31 00:42:11;;;;;;;56.87;19.77;;;16.40;99.90;;;;;;5137225;28;20922;-66
2024/03/31 00:44:37;;;;;;;64.63;18.23;;;16.30;99.90;;;;;;5136671;27;20486;-66
2024/03/31 00:47:05;;;;;;;74.70;23.50;;;16.30;99.90;;;;;;5137481;27;20856;-65
2024/03/31 00:49:31;;;;;;;59.37;19.40;;;16.30;99.90;;;;;;5137415;28;20484;-66
2024/03/31 00:51:58;;;;;;;62.27;20.83;;;16.20;99.90;;;;;;5136753;28;20441;-66
2024/03/31 00:54:24;;;;;;;65.00;20.03;;;16.20;99.90;;;;;;5136994;28;20803;-66
2024/03/31 00:56:51;;;;;;;72.10;20.50;;;16.20;99.90;;;;;;5137658;28;20425;-65
2024/03/31 00:59:17;;;;;;;64.90;18.47;;;16.30;99.90;;;;;;5137319;28;20437;-66
2024/03/31 01:01:45;;;;;;;64.00;21.00;;;16.20;99.90;;;;;;5137599;28;20440;-66
2024/03/31 01:04:12;;;;;;;66.20;20.20;;;16.20;99.90;;;;;;5136089;28;20472;-66
2024/03/31 01:06:39;;;;;;;84.73;19.30;;;16.10;99.90;;;;;;5137293;28;20472;-66
2024/03/31 01:09:07;;;;;;;51.40;18.13;;;16.10;99.90;;;;;;5137697;28;20484;-66
2024/03/31 01:11:34;;;;;;;67.70;18.87;;;16.10;99.90;;;;;;5137604;28;20448;-65
2024/03/31 01:14:04;;;;;;;60.37;17.63;;;16.10;99.90;;;;;;5137024;28;20451;-66
2024/03/31 01:16:31;;;;;;;52.00;17.40;;;16.10;99.90;;;;;;5136872;28;20457;-66
2024/03/31 01:18:57;;;;;;;59.27;16.43;;;16.10;99.90;;;;;;5137053;28;20433;-66
2024/03/31 01:21:27;;;;;;;54.50;17.80;;;16.00;99.90;;;;;;5137110;28;21001;-66
2024/03/31 01:23:56;;;;;;;67.10;22.47;;;16.00;99.90;;;;;;5136832;28;20425;-65
2024/03/31 01:26:24;;;;;;;70.83;17.50;;;16.00;99.90;;;;;;5137148;28;20540;-66
2024/03/31 01:28:50;;;;;;;67.10;18.63;;;16.00;99.90;;;;;;5137114;28;20473;-65
2024/03/31 01:31:17;;;;;;;51.50;20.07;;;16.00;99.90;;;;;;5137160;28;20470;-65
2024/03/31 01:33:43;;;;;;;50.07;20.73;;;15.90;99.90;;;;;;5136601;28;20868;-64
2024/03/31 01:36:11;;;;;;;58.57;18.20;;;16.00;99.90;;;;;;5136695;28;20449;-64
2024/03/31 01:38:38;;;;;;;58.87;16.60;;;15.90;99.90;;;;;;5137192;28;20437;-65
2024/03/31 01:41:06;;;;;;;70.40;18.67;;;15.90;99.90;;;;;;5137223;28;20437;-66
2024/03/31 01:43:32;;;;;;;68.53;17.17;;;15.90;99.90;;;;;;5137187;28;20440;-66
2024/03/31 01:45:59;;;;;;;62.97;16.93;;;15.90;99.90;;;;;;5136292;28;20453;-65
2024/03/31 01:48:25;;;;;;;53.80;17.30;;;15.80;99.90;;;;;;5136419;28;20474;-65
2024/03/31 01:50:52;;;;;;;70.53;15.40;;;15.80;99.90;;;;;;5137068;28;20441;-66
2024/03/31 01:53:18;;;;;;;52.87;16.97;;;15.80;99.90;;;;;;5136767;28;20448;-66
2024/03/31 01:55:45;;;;;;;69.03;16.10;;;15.70;99.90;;;;;;5136829;28;20453;-65
2024/03/31 01:58:12;;;;;;;50.70;17.43;;;15.70;99.90;;;;;;5134783;28;20199;-65
2024/03/31 02:00:39;;;;;;;50.47;14.93;;;15.60;99.90;;;;;;5133751;28;20512;-65
2024/03/31 02:03:05;;;;;;;54.20;16.57;;;15.60;99.90;;;;;;5133036;28;20449;-66
2024/03/31 02:05:32;;;;;;;56.40;16.57;;;15.60;99.90;;;;;;5132107;28;20475;-66
2024/03/31 02:07:58;;;;;;;76.80;17.63;;;15.50;99.90;;;;;;5133808;28;20455;-66
2024/03/31 02:10:26;;;;;;;61.00;16.60;;;15.50;99.90;;;;;;5133369;28;20476;-65
2024/03/31 02:12:51;;;;;;;55.53;15.53;;;15.50;99.90;;;;;;5135320;28;20475;-66
2024/03/31 02:15:20;;;;;;;40.20;13.90;;;15.50;99.90;;;;;;5135097;28;20453;-68
2024/03/31 02:17:46;;;;;;;41.10;15.53;;;15.40;99.90;;;;;;5135502;28;20184;-66
2024/03/31 02:20:14;;;;;;;54.07;15.23;;;15.40;99.90;;;;;;5136522;28;20457;-65
2024/03/31 02:22:40;;;;;;;53.53;14.07;;;15.40;99.90;;;;;;5135373;28;20444;-65
2024/03/31 02:25:07;;;;;;;55.70;13.00;;;15.40;99.90;;;;;;5135485;28;20537;-66
2024/03/31 02:27:35;;;;;;;57.27;15.70;;;15.40;99.90;;;;;;5136076;28;20434;-66
2024/03/31 02:30:02;;;;;;;55.13;15.93;;;15.40;99.90;;;;;;5136015;28;20497;-66
2024/03/31 02:32:29;;;;;;;45.97;13.90;;;15.40;99.90;;;;;;5135476;28;20950;-66
2024/03/31 02:34:56;;;;;;;55.33;14.37;;;15.30;99.90;;;;;;5134454;28;20460;-66
2024/03/31 02:37:22;;;;;;;61.23;15.13;;;15.40;99.90;;;;;;5133988;28;20441;-66
2024/03/31 02:39:49;;;;;;;51.17;14.87;;;15.40;99.90;;;;;;5135580;28;20429;-66
2024/03/31 02:42:15;;;;;;;50.73;15.40;;;15.30;99.90;;;;;;5135365;28;20420;-65
2024/03/31 02:44:46;;;;;;;58.97;16.27;;;15.20;99.90;;;;;;5135160;28;20437;-65
2024/03/31 02:47:12;;;;;;;51.87;14.30;;;15.20;99.90;;;;;;5135031;28;20203;-65
2024/03/31 02:49:41;;;;;;;53.00;16.00;;;15.30;99.90;;;;;;5134707;28;20469;-66
2024/03/31 02:52:07;;;;;;;50.77;16.67;;;15.20;99.90;;;;;;5134507;28;20974;-65
2024/03/31 02:54:34;;;;;;;59.80;15.37;;;15.20;99.90;;;;;;5134210;28;20445;-65
2024/03/31 02:57:01;;;;;;;40.07;14.70;;;15.10;99.90;;;;;;5134248;28;20451;-66
2024/03/31 02:59:28;;;;;;;53.47;16.07;;;15.10;99.90;;;;;;5134685;28;20508;-65
2024/03/31 03:01:54;;;;;;;52.00;19.73;;;15.00;99.90;;;;;;5134368;28;20441;-65
2024/03/31 03:04:21;;;;;;;45.80;16.33;;;15.10;99.90;;;;;;5133397;28;20441;-65
2024/03/31 03:06:48;;;;;;;58.37;15.07;;;15.10;99.90;;;;;;5133430;28;20464;-65
2024/03/31 03:09:16;;;;;;;57.03;18.20;;;15.10;99.90;;;;;;5133626;28;20483;-66
2024/03/31 03:11:42;;;;;;;75.43;21.70;;;15.10;99.90;;;;;;5133605;28;20440;-66
2024/03/31 03:14:10;;;;;;;46.73;17.70;;;15.00;99.90;;;;;;5132701;28;20437;-65
2024/03/31 03:16:35;;;;;;;75.53;18.27;;;14.90;99.90;;;;;;5132828;28;20520;-66
2024/03/31 03:19:03;;;;;;;56.20;17.07;;;14.90;99.90;;;;;;5132041;28;20436;-66
2024/03/31 03:21:28;;;;;;;56.10;17.23;;;14.90;99.90;;;;;;5137459;22;20461;-61
2024/03/31 03:23:57;;;;;;;40.97;15.23;;;14.80;99.90;;;;;;5070167;28;20493;-61
2024/03/31 03:26:24;;;;;;;57.60;16.30;;;14.80;99.90;;;;;;5071259;28;20522;-60
2024/03/31 03:28:49;;;;;;;47.60;14.87;;;14.70;99.90;;;;;;5072845;28;20459;-61
2024/03/31 03:31:16;;;;;;;48.47;18.63;;;14.70;99.90;;;;;;5074824;28;20481;-58
2024/03/31 03:33:42;;;;;;;61.20;16.40;;;14.60;99.90;;;;;;5074507;28;20226;-60
2024/03/31 03:36:10;;;;;;;62.53;18.43;;;14.60;99.90;;;;;;5074511;28;20529;-59
2024/03/31 03:38:37;;;;;;;44.87;13.93;;;14.60;99.90;;;;;;5074627;28;20288;-59
2024/03/31 03:41:05;;;;;;;64.23;17.23;;;14.60;99.90;;;;;;5074321;28;20438;-60
2024/03/31 03:43:33;;;;;;;48.80;14.30;;;14.60;99.90;;;;;;5074286;28;20973;-58
2024/03/31 03:46:00;;;;;;;52.63;14.57;;;14.50;99.90;;;;;;5074864;28;21007;-59
2024/03/31 03:48:27;;;;;;;42.43;15.70;;;14.50;99.90;;;;;;5074347;28;20442;-59
2024/03/31 03:50:52;;;;;;;43.73;14.17;;;14.50;99.90;;;;;;5074203;28;20482;-58
2024/03/31 03:53:19;;;;;;;49.50;14.90;;;14.40;99.90;;;;;;5074198;28;20529;-58
2024/03/31 03:55:45;;;;;;;47.50;15.03;;;14.50;99.90;;;;;;5073949;28;20923;-60
2024/03/31 03:58:14;;;;;;;47.70;14.10;;;14.40;99.90;;;;;;5074345;28;20928;-60
2024/03/31 04:00:40;;;;;;;53.73;15.23;;;14.30;99.90;;;;;;5073981;28;20529;-60
2024/03/31 04:03:07;;;;;;;54.33;15.80;;;14.30;99.90;;;;;;5074295;28;20526;-58
2024/03/31 04:05:33;;;;;;;46.97;16.10;;;14.20;99.90;;;;;;5073796;28;20831;-59
2024/03/31 04:08:00;;;;;;;37.43;15.40;;;14.20;99.90;;;;;;5073984;28;20521;-60
2024/03/31 04:10:25;;;;;;;46.97;16.67;;;14.20;99.90;;;;;;5074177;28;20224;-62
2024/03/31 04:12:52;;;;;;;61.50;17.97;;;14.20;99.90;;;;;;5074245;28;20508;-61
2024/03/31 04:15:20;;;;;;;52.97;15.83;;;14.20;99.90;;;;;;5073396;28;20982;-59
2024/03/31 04:17:46;;;;;;;41.73;13.93;;;14.20;99.90;;;;;;5073895;28;20447;-59
2024/03/31 04:20:12;;;;;;;63.03;18.73;;;14.10;99.90;;;;;;5072224;28;20455;-61
2024/03/31 04:22:39;;;;;;;44.13;15.17;;;14.20;99.90;;;;;;5072951;28;20451;-60
2024/03/31 04:25:06;;;;;;;48.37;14.27;;;14.10;99.90;;;;;;5073112;28;20307;-60
2024/03/31 04:27:32;;;;;;;55.23;15.70;;;14.10;99.90;;;;;;5073228;28;20838;-61
2024/03/31 04:29:58;;;;;;;70.90;17.47;;;14.10;99.90;;;;;;5073382;28;20486;-62
2024/03/31 04:32:26;;;;;;;51.27;16.70;;;14.10;99.90;;;;;;5072677;28;20863;-59
2024/03/31 04:34:52;;;;;;;53.77;16.20;;;14.00;99.90;;;;;;5072905;28;20224;-60
2024/03/31 04:37:20;;;;;;;71.33;15.93;;;14.00;99.90;;;;;;5073387;28;20438;-61
2024/03/31 04:39:46;;;;;;;62.53;18.53;;;14.00;99.90;;;;;;5073530;28;20201;-61
2024/03/31 04:42:13;;;;;;;57.67;17.50;;;14.00;99.90;;;;;;5073526;28;20442;-63
2024/03/31 04:44:39;;;;;;;55.07;17.30;;;14.00;99.90;;;;;;5073286;28;20458;-61
2024/03/31 04:47:06;;;;;;;51.97;13.80;;;13.90;99.90;;;;;;5073370;28;20859;-62
2024/03/31 04:49:33;;;;;;;53.50;15.83;;;13.90;99.90;;;;;;5073061;28;20575;-62
2024/03/31 04:52:00;;;;;;;49.67;15.77;;;13.90;99.90;;;;;;5073582;28;20451;-62
2024/03/31 04:54:25;;;;;;;53.87;16.77;;;13.90;99.90;;;;;;5073081;28;20554;-59
2024/03/31 04:56:52;;;;;;;62.73;17.03;;;13.90;99.90;;;;;;5073424;28;20529;-63
2024/03/31 04:59:18;;;;;;;48.20;16.60;;;13.90;99.90;;;;;;5073267;28;20203;-61
2024/03/31 05:01:45;;;;;;;42.80;15.80;;;13.90;99.90;;;;;;5073031;28;20518;-60
2024/03/31 05:04:11;;;;;;;45.73;13.80;;;13.90;99.90;;;;;;5072624;28;20683;-62
2024/03/31 05:06:39;;;;;;;79.60;16.47;;;13.90;99.90;;;;;;5073119;28;20522;-61
2024/03/31 05:09:06;;;;;;;46.30;13.03;;;13.90;99.90;;;;;;5072552;28;20204;-61
2024/03/31 05:11:33;;;;;;;51.33;15.10;;;13.80;99.90;;;;;;5072991;28;20454;-56
2024/03/31 05:13:59;;;;;;;43.73;16.20;;;13.80;99.90;;;;;;5072401;28;20546;-60
2024/03/31 05:16:25;;;;;;;67.40;17.90;;;13.70;99.90;;;;;;5072542;28;20526;-62
2024/03/31 05:18:53;;;;;;;53.57;15.47;;;13.70;99.90;;;;;;5072517;28;20529;-61
2024/03/31 05:21:21;;;;;;;54.70;15.97;;;13.70;99.90;;;;;;5072682;28;20449;-61
2024/03/31 05:23:48;;;;;;;75.03;19.27;;;13.60;99.90;;;;;;5072542;28;20497;-61
2024/03/31 05:26:15;;;;;;;47.53;14.37;;;13.60;99.90;;;;;;5072810;28;20978;-60
2024/03/31 05:28:41;;;;;;;72.33;16.37;;;13.60;99.90;;;;;;5072309;28;20449;-60
2024/03/31 05:31:08;;;;;;;48.80;15.17;;;13.60;99.90;;;;;;5072597;28;20549;-57
2024/03/31 05:33:34;;;;;;;45.33;17.73;;;13.50;99.90;;;;;;5071979;28;20458;-59
2024/03/31 05:36:01;;;;;;;63.43;15.70;;;13.50;99.90;;;;;;5072220;28;20447;-60
2024/03/31 05:38:27;;;;;;;52.53;16.00;;;13.50;99.90;;;;;;5072576;28;20478;-61
2024/03/31 05:40:56;;;;;;;66.93;14.50;;;13.50;99.90;;;;;;5072368;28;20438;-62
2024/03/31 05:43:22;;;;;;;49.77;14.67;;;13.50;99.90;;;;;;5071783;28;20447;-61
2024/03/31 05:45:48;;;;;;;64.13;15.97;;;13.50;99.90;;;;;;5072117;28;20457;-62
2024/03/31 05:48:14;;;;;;;32.93;16.50;;;13.50;99.90;;;;;;5071996;28;20443;-59
2024/03/31 05:50:42;;;;;;;53.60;13.50;;;13.50;99.90;;;;;;5071721;28;20589;-61
2024/03/31 05:53:07;;;;;;;48.87;15.60;;;13.50;99.90;;;;;;5072023;28;20798;-59
2024/03/31 05:55:34;;;;;;;67.80;14.37;;;13.60;99.90;;;;;;5071661;28;20546;-60
2024/03/31 05:58:02;;;;;;;65.77;19.67;;;13.60;99.90;;;;;;5072066;28;20296;-62
2024/03/31 06:00:29;;;;;;;54.70;14.27;;;13.60;99.90;;;;;;5071801;28;20447;-58
2024/03/31 06:02:55;;;;;;;50.43;15.27;;;13.70;99.90;;;;;;5071958;28;20434;-61
2024/03/31 06:05:22;;;;;;;47.73;13.90;;;13.70;99.90;;;;;;5071780;28;21048;-59
2024/03/31 06:07:48;;;;;;;53.57;13.93;;;13.70;99.90;;;;;;5071946;28;20291;-60
2024/03/31 06:10:15;;;;;;;53.10;18.73;;;13.70;99.90;;;;;;5071658;28;20470;-60
2024/03/31 06:12:41;;;;;;;51.93;15.70;;;13.70;99.90;;;;;;5071875;28;20549;-62
2024/03/31 06:15:10;;;;;;;52.83;13.37;;;13.70;99.90;;;;;;5071290;28;20544;-61
2024/03/31 06:17:36;;;;;;;75.70;15.33;;;13.80;99.90;;;;;;5071636;28;20291;-62
2024/03/31 06:20:07;;;;;;;50.83;15.23;;;13.90;99.90;;;;;;5071707;28;20442;-62
2024/03/31 06:22:37;;;;;;;54.90;14.30;;;13.90;99.90;;;;;;5071630;28;20857;-61
2024/03/31 06:25:04;;;;;;;58.50;14.27;;;14.00;99.90;;;;;;5071742;28;20497;-60
2024/03/31 06:27:30;;;;;;;46.90;17.37;;;14.10;99.90;;;;;;5071864;28;20464;-60
2024/03/31 06:29:57;;;;;;;59.63;17.23;;;14.10;99.90;;;;;;5071379;28;21040;-61
2024/03/31 06:32:24;;;;;;;58.80;18.00;;;14.20;99.90;;;;;;5071559;28;20288;-62
2024/03/31 06:34:52;;;;;;;43.40;14.13;;;14.20;99.90;;;;;;5071262;28;20470;-60
2024/03/31 06:37:18;;;;;;;53.17;18.70;;;14.20;99.90;;;;;;5071592;28;20880;-62
2024/03/31 06:39:48;;;;;;;49.93;14.87;;;14.20;99.90;;;;;;5071852;28;20833;-62
2024/03/31 06:42:15;;;;;;;50.00;15.60;;;14.30;99.90;;;;;;5071561;28;20530;-61
2024/03/31 06:44:44;;;;;;;51.00;15.80;;;14.30;99.90;;;;;;5071253;28;20550;-61
2024/03/31 06:47:11;;;;;;;42.97;13.50;;;14.30;99.90;;;;;;5071648;28;20447;-62
2024/03/31 06:49:39;;;;;;;56.40;20.43;;;14.30;99.90;;;;;;5071360;28;20521;-60
2024/03/31 06:52:09;;;;;;;66.50;14.90;;;14.30;99.90;;;;;;5071487;28;20496;-62
2024/03/31 06:54:35;;;;;;;58.20;17.30;;;14.40;99.90;;;;;;5070962;28;20553;-64
2024/03/31 06:57:04;;;;;;;65.23;17.37;;;14.40;99.90;;;;;;5071317;28;20517;-60
2024/03/31 06:59:30;;;;;;;50.17;20.63;;;14.40;99.90;;;;;;5071854;28;20208;-62
2024/03/31 07:01:57;;;;;;;50.67;14.97;;;14.50;99.90;;;;;;5072006;28;20448;-61
2024/03/31 07:04:26;;;;;;;58.73;15.43;;;14.60;99.90;;;;;;5072822;28;20490;-61
2024/03/31 07:06:55;;;;;;;64.13;16.50;;;14.60;99.90;;;;;;5074603;28;20427;-59
2024/03/31 07:09:20;;;;;;;55.00;16.70;;;14.60;99.90;;;;;;5073792;28;20964;-62
2024/03/31 07:11:48;;;;;;;67.20;17.13;;;14.70;99.90;;;;;;5075180;28;20541;-57
2024/03/31 07:14:13;;;;;;;51.97;15.80;;;14.80;99.90;;;;;;5073532;28;20497;-62
2024/03/31 07:16:42;;;;;;;47.50;12.37;;;14.80;99.90;;;;;;5075307;28;20478;-61
2024/03/31 07:19:11;;;;;;;50.53;15.63;;;14.90;99.90;;;;;;5075260;28;20204;-60
2024/03/31 07:21:40;;;;;;;42.23;16.10;;;14.90;99.90;;;;;;5074985;28;20454;-62
2024/03/31 07:24:07;;;;;;;76.70;18.63;;;14.90;99.90;;;;;;5074994;28;20469;-60
2024/03/31 07:26:34;;;;;;;57.13;16.23;;;15.00;99.90;;;;;;5075362;28;20549;-61
2024/03/31 07:29:02;;;;;;;44.53;15.20;;;15.00;99.90;;;;;;5074933;28;20813;-59
2024/03/31 07:31:32;;;;;;;51.23;15.60;;;15.10;99.90;;;;;;5074931;28;20470;-59
2024/03/31 07:33:57;;;;;;;66.97;16.83;;;15.20;99.90;;;;;;5074558;28;20466;-59
2024/03/31 07:36:24;;;;;;;54.77;15.47;;;15.20;99.90;;;;;;5074794;28;20951;-61
2024/03/31 07:38:50;;;;;;;59.70;15.70;;;15.20;99.90;;;;;;5074613;28;20244;-59
2024/03/31 07:41:18;;;;;;;59.17;18.80;;;15.20;99.90;;;;;;5074592;28;20481;-58
2024/03/31 07:43:44;;;;;;;46.23;14.33;;;15.20;99.90;;;;;;5074381;28;20466;-62
2024/03/31 07:46:11;;;;;;;47.70;16.23;;;15.20;99.90;;;;;;5074475;28;21007;-60
2024/03/31 07:48:37;;;;;;;63.17;16.90;;;15.20;99.90;;;;;;5074439;28;20537;-60
2024/03/31 07:51:05;;;;;;;63.17;16.13;;;15.20;99.90;;;;;;5074284;28;20474;-61
2024/03/31 07:53:31;;;;;;;55.40;15.53;;;15.20;99.90;;;;;;5074361;28;20200;-62
2024/03/31 07:55:58;;;;;;;60.37;17.73;;;15.20;99.90;;;;;;5074495;28;20957;-62
2024/03/31 07:58:26;;;;;;;56.80;16.10;;;15.20;99.90;;;;;;5074517;28;20447;-62
2024/03/31 08:00:54;;;;;;;56.20;18.17;;;15.30;99.90;;;;;;5073860;28;20439;-56
2024/03/31 08:03:20;;;;;;;57.63;17.17;;;15.40;99.90;;;;;;5072099;28;20951;-61
2024/03/31 08:05:47;;;;;;;57.07;17.67;;;15.60;99.90;;;;;;5071740;28;20516;-60
2024/03/31 08:08:20;;;;;;;71.97;19.30;;;15.60;99.90;;;;;;5088731;28;20487;-60
2024/03/31 08:10:47;;;;;;;48.53;17.60;;;15.80;99.90;;;;;;5081636;28;20466;-62
2024/03/31 08:13:13;;;;;;;54.70;21.07;;;16.00;99.90;;;;;;5072741;28;20537;-60
2024/03/31 08:15:44;;;;;;;60.90;21.90;;;16.20;99.90;;;;;;5071676;28;20810;-62
2024/03/31 08:18:11;;;;;;;55.70;16.17;;;16.40;99.90;;;;;;5072448;28;20204;-61
2024/03/31 08:20:38;;;;;;;54.20;16.80;;;16.60;99.90;;;;;;5073345;28;20514;-58
2024/03/31 08:23:04;;;;;;;65.53;18.20;;;16.80;99.90;;;;;;5073029;28;20447;-61
2024/03/31 08:25:31;;;;;;;43.43;18.20;;;16.90;99.90;;;;;;5073408;28;20467;-52
2024/03/31 08:27:58;;;;;;;51.37;17.93;;;17.10;99.90;;;;;;5072059;28;20205;-55
2024/03/31 08:30:24;;;;;;;47.07;17.57;;;17.40;99.90;;;;;;5072958;28;20475;-55
2024/03/31 08:32:52;;;;;;;61.63;17.03;;;17.60;99.90;;;;;;5073123;28;20515;-54
2024/03/31 08:35:19;;;;;;;58.23;17.10;;;18.00;99.90;;;;;;5072574;28;20466;-54
2024/03/31 08:37:46;;;;;;;58.20;17.27;;;18.30;99.90;;;;;;5073617;28;20919;-53
2024/03/31 08:40:13;;;;;;;59.73;17.80;;;18.60;99.90;;;;;;5072617;28;20442;-57
2024/03/31 08:42:44;;;;;;;49.77;17.67;;;19.00;99.90;;;;;;5072999;28;20514;-54
2024/03/31 08:45:14;;;;;;;45.67;15.77;;;19.40;99.90;;;;;;5069705;28;20455;-54
2024/03/31 08:47:42;;;;;;;53.50;19.30;;;19.90;99.90;;;;;;5072890;28;20435;-54
2024/03/31 08:50:10;;;;;;;44.60;19.37;;;20.50;99.90;;;;;;5069950;28;20516;-51
2024/03/31 08:52:36;;;;;;;51.40;18.00;;;21.20;99.90;;;;;;5072596;28;20485;-58
2024/03/31 08:55:04;;;;;;;45.40;18.53;;;21.90;99.90;;;;;;5072364;28;20459;-55
2024/03/31 08:57:31;;;;;;;67.70;21.07;;;22.30;99.90;;;;;;5069876;28;20451;-54
2024/03/31 09:00:03;;;;;;;58.80;19.70;;;22.40;99.30;;;;;;5072486;28;20443;-56
2024/03/31 09:02:30;;;;;;;68.10;19.57;;;22.40;97.80;;;;;;5070052;28;20439;-55
2024/03/31 09:04:57;;;;;;;61.70;17.00;;;22.50;96.70;;;;;;5070276;28;21018;-57
2024/03/31 09:07:24;;;;;;;54.27;16.97;;;22.70;95.90;;;;;;5072301;28;20795;-55
2024/03/31 09:09:51;;;;;;;67.33;19.80;;;22.80;95.60;;;;;;5072037;28;20811;-54
2024/03/31 09:12:18;;;;;;;49.47;18.30;;;22.90;95.30;;;;;;5058600;28;20888;-54
2024/03/31 09:14:45;;;;;;;62.23;18.40;;;23.00;95.70;;;;;;5072151;28;21060;-56
2024/03/31 09:17:14;;;;;;;62.97;19.40;;;23.20;95.00;;;;;;5072379;28;20634;-54
2024/03/31 09:19:41;;;;;;;44.50;18.50;;;23.00;94.20;;;;;;5072092;28;20440;-58
2024/03/31 09:22:11;;;;;;;59.40;17.87;;;22.60;94.50;;;;;;5072748;28;20459;-59
2024/03/31 09:24:43;;;;;;;57.60;17.30;;;22.20;94.80;;;;;;5071948;28;20497;-55
2024/03/31 09:27:09;;;;;;;50.13;18.00;;;22.10;95.60;;;;;;5071845;28;20442;-53
2024/03/31 09:29:41;;;;;;;51.10;17.93;;;22.30;95.50;;;;;;5070629;28;20445;-53
2024/03/31 09:32:11;;;;;;;65.73;17.63;;;22.60;95.30;;;;;;5071829;28;21012;-52
2024/03/31 09:34:42;;;;;;;51.80;18.10;;;23.00;95.10;;;;;;5069417;28;20873;-56
2024/03/31 09:37:11;;;;;;;46.93;16.80;;;23.20;94.70;;;;;;5071664;28;20439;-53
2024/03/31 09:39:40;;;;;;;55.90;19.47;;;23.50;94.80;;;;;;5069244;28;20461;-55
2024/03/31 09:42:08;;;;;;;57.27;20.73;;;23.70;94.70;;;;;;5064938;28;20525;-55
2024/03/31 09:44:37;;;;;;;53.03;17.87;;;23.60;95.00;;;;;;5069199;28;20877;-52
2024/03/31 09:47:07;;;;;;;50.07;19.97;;;23.50;94.80;;;;;;5063677;28;20467;-56
2024/03/31 09:49:39;;;;;;;70.50;20.37;;;23.50;94.80;;;;;;5068369;28;20442;-51
2024/03/31 09:52:08;;;;;;;62.50;20.07;;;23.70;94.30;;;;;;5061586;28;20838;-57
2024/03/31 09:54:42;;;;;;;52.50;20.77;;;23.80;93.90;;;;;;5071671;28;20823;-63
2024/03/31 09:57:11;;;;;;;58.20;18.53;;;23.90;93.70;;;;;;5072080;28;20479;-63
2024/03/31 09:59:44;;;;;;;56.37;18.27;;;23.80;93.20;;;;;;5071976;28;20446;-63
2024/03/31 10:02:13;;;;;;;65.10;17.13;;;23.80;92.90;;;;;;5071725;28;20450;-61
2024/03/31 10:04:44;;;;;;;59.40;17.93;;;23.80;92.70;;;;;;5071809;28;20548;-63
2024/03/31 10:07:10;;;;;;;46.17;15.80;;;24.00;92.50;;;;;;5069726;28;20469;-64
2024/03/31 10:09:38;;;;;;;52.20;19.43;;;24.30;92.60;;;;;;5070517;28;20429;-61
2024/03/31 10:12:07;;;;;;;42.87;17.70;;;24.60;92.30;;;;;;5070075;28;20279;-62
2024/03/31 10:14:35;;;;;;;57.17;16.97;;;24.70;91.20;;;;;;5069730;28;20477;-61
2024/03/31 10:17:01;;;;;;;68.87;18.70;;;24.70;91.20;;;;;;5070446;28;20562;-63
2024/03/31 10:19:29;;;;;;;40.87;17.20;;;24.90;90.90;;;;;;5071554;28;20446;-62
2024/03/31 10:21:58;;;;;;;52.03;17.20;;;24.90;90.30;;;;;;5071702;28;20540;-60
2024/03/31 10:24:25;;;;;;;56.87;17.00;;;24.80;90.00;;;;;;5071384;28;20448;-63
2024/03/31 10:26:53;;;;;;;58.53;16.83;;;24.50;90.20;;;;;;5071413;28;20485;-61
2024/03/31 10:29:22;;;;;;;62.67;18.40;;;24.20;90.50;;;;;;5071464;28;20807;-61
2024/03/31 10:31:48;;;;;;;62.87;19.67;;;24.10;90.50;;;;;;5071413;28;21045;-62
2024/03/31 10:34:15;;;;;;;53.80;17.23;;;24.10;91.20;;;;;;5071070;28;20487;-62
2024/03/31 10:36:42;;;;;;;43.37;16.77;;;23.80;91.60;;;;;;5071392;28;20476;-62
2024/03/31 10:39:10;;;;;;;78.17;19.33;;;23.80;91.50;;;;;;5071561;28;20799;-62
2024/03/31 10:41:36;;;;;;;43.97;18.40;;;23.70;91.60;;;;;;5071344;28;20792;-62
2024/03/31 10:44:04;;;;;;;51.00;16.30;;;23.70;91.30;;;;;;5070889;28;20486;-60
2024/03/31 10:46:34;;;;;;;45.43;16.80;;;23.80;91.60;;;;;;5071448;28;20856;-60
2024/03/31 10:49:02;;;;;;;52.67;15.40;;;23.70;91.30;;;;;;5071572;28;20446;-61
2024/03/31 10:51:28;;;;;;;44.67;19.13;;;23.50;91.70;;;;;;5071339;28;20478;-58
2024/03/31 10:53:55;;;;;;;60.93;19.53;;;23.50;92.20;;;;;;5070988;28;20543;-64
2024/03/31 10:56:25;;;;;;;49.80;17.43;;;23.40;91.90;;;;;;5071191;28;20475;-60
2024/03/31 10:58:52;;;;;;;57.03;18.43;;;23.20;91.90;;;;;;5071475;28;20798;-61
2024/03/31 11:01:19;;;;;;;58.60;18.40;;;23.30;92.10;;;;;;5071657;28;20535;-63
2024/03/31 11:03:47;;;;;;;62.40;18.73;;;23.20;91.90;;;;;;5071262;28;20969;-62
2024/03/31 11:06:14;;;;;;;43.03;14.77;;;23.20;92.30;;;;;;5069066;28;20438;-62
2024/03/31 11:08:43;;;;;;;53.70;17.50;;;23.20;91.60;;;;;;5064407;28;20435;-62
2024/03/31 11:11:10;;;;;;;52.00;20.43;;;23.10;92.10;;;;;;5070992;28;20474;-62
2024/03/31 11:13:38;;;;;;;60.57;16.70;;;23.10;92.50;;;;;;5069361;28;20948;-63
2024/03/31 11:16:09;;;;;;;61.30;16.47;;;23.10;93.00;;;;;;5069989;28;20536;-59
2024/03/31 11:18:36;;;;;;;54.93;14.90;;;22.90;93.40;;;;;;5052271;28;20440;-63
2024/03/31 11:21:08;;;;;;;53.63;14.93;;;22.80;94.30;;;;;;5051270;28;21032;-62
2024/03/31 11:23:38;;;;;;;58.83;17.23;;;22.90;94.70;;;;;;5050480;28;20479;-62
2024/03/31 11:26:07;;;;;;;46.47;17.73;;;22.70;94.70;;;;;;5051231;28;20467;-58
2024/03/31 11:28:34;;;;;;;54.53;13.80;;;22.60;94.80;;;;;;5051328;28;20535;-59
2024/03/31 11:31:01;;;;;;;58.50;18.90;;;22.50;95.40;;;;;;5050748;28;20875;-62
2024/03/31 11:33:28;;;;;;;51.80;15.07;;;22.40;95.70;;;;;;5050601;28;20440;-61
2024/03/31 11:35:56;;;;;;;41.83;15.60;;;22.40;96.10;;;;;;5050985;28;20490;-61
2024/03/31 11:38:24;;;;;;;47.30;15.57;;;22.30;97.10;;;;;;5050848;28;21022;-59
2024/03/31 11:40:53;;;;;;;43.50;15.30;;;22.30;97.40;;;;;;5051217;28;20542;-60
2024/03/31 11:43:20;;;;;;;43.97;13.77;;;22.20;97.90;;;;;;5050708;28;20471;-61
2024/03/31 11:45:46;;;;;;;36.77;15.77;;;22.30;98.30;;;;;;5050977;28;20447;-62
2024/03/31 11:48:13;;;;;;;34.97;14.83;;;22.30;98.20;;;;;;5050917;28;20505;-63
2024/03/31 11:50:40;;;;;;;46.03;15.10;;;22.40;98.50;;;;;;5053760;28;20912;-63
2024/03/31 11:53:07;;;;;;;40.47;14.00;;;22.40;98.30;;;;;;5054789;28;20463;-62
2024/03/31 11:55:35;;;;;;;42.20;14.13;;;22.20;98.20;;;;;;5054036;28;20980;-63
2024/03/31 11:58:02;;;;;;;54.10;14.40;;;22.10;99.40;;;;;;5054252;28;20522;-63
2024/03/31 12:00:28;;;;;;;34.77;13.57;;;22.00;99.50;;;;;;5054200;28;20955;-63
2024/03/31 12:03:04;;;;;;;43.57;17.13;;;21.90;99.90;;;;;;5054231;28;20523;-64
2024/03/31 12:05:30;;;;;;;43.43;14.50;;;21.90;99.50;;;;;;5054163;28;20221;-63
2024/03/31 12:07:57;;;;;;;45.13;13.30;;;21.90;99.90;;;;;;5067113;28;20542;-61
2024/03/31 12:10:23;;;;;;;43.70;15.00;;;21.90;99.80;;;;;;5073038;28;20463;-62
2024/03/31 12:12:53;;;;;;;44.80;14.87;;;21.70;99.90;;;;;;5073407;28;21044;-63
2024/03/31 12:15:19;;;;;;;30.30;12.97;;;21.50;99.90;;;;;;5073521;28;20507;-63
2024/03/31 12:17:47;;;;;;;34.27;15.50;;;21.50;99.90;;;;;;5073325;28;20500;-61
2024/03/31 12:20:13;;;;;;;44.53;16.70;;;21.60;99.90;;;;;;5073354;28;20886;-63
2024/03/31 12:22:41;;;;;;;49.60;16.67;;;21.70;99.90;;;;;;5073717;28;20943;-61
2024/03/31 12:25:13;;;;;;;43.03;14.63;;;21.70;99.90;;;;;;5073407;28;20562;-64
2024/03/31 12:27:40;;;;;;;46.47;15.33;;;21.80;99.90;;;;;;5073882;28;20454;-62